首页
METAR-TAF:

METAR-TAF

机场 :

布爾加斯, 保加利亚

纬度: 42-29N, 经度: 027-29E, 海拔: 16米

当前天气观测

该预报发布于22分钟前的10:30 UTC
风速13节,风向东转东南
温度 33°C
湿度 41%
气压 1010 hPa
能见度10公里或以上
1500米以下无云,无积雨云

METAR: LBBG 201030Z 12013KT CAVOK 33/18 Q1010 NOSIG

时间: 13:52 (10:52 UTC)

预报

该预报发布于5小时和52分钟前的05:00 UTC
预报有效从20日的 06点(UTC)到 21日的 06点(UTC)
风速4节,风向多变
能见度10公里或以上
散云层高于4500英尺
成为
从 20日的 07点(UTC)到 20日的 09点(UTC)
风速12节,风向东转东南
几率 30% :
短暂存在
从 20日的 11点(UTC)到 20日的 16点(UTC)
能見度: 5000
散云层高于3000英尺, 积雨云.
多云层高于4500英尺
雷暴, 雨
成为
从 20日的 19点(UTC)到 20日的 21点(UTC)
风速4节,风向多变

TAF: LBBG 200500Z 2006/2106 VRB04KT 9999 SCT045 BECMG 2007/2009 11012KT PROB30 TEMPO 2011/2016 5000 TSRA SCT030CB BKN045 BECMG 2019/2021 VRB04KT

超过4000个机场的气象观测和天气预报(METAR&TAF报告)。

可查询的气象台以黄色和红色小点在地图上表示。

将鼠标移到小点上方,可查看气象台名称。

然后点击查看天气观测和预报。

如需切换地图:点击带黑十字的绿色按钮放大地图;点击带横线的绿色按钮缩小地图;或者点击绿色箭头查看邻近地区的地图。


METAR-TAF: